Saint-Georges, Canada
Current Conditions -  °F | °C
As of 7:00 PM on Thursday 18 Dec 2014 (Local Time) from CYQB Reporting Station
Scattered Clouds Scattered Clouds  
Wind Chill: 22°   Ceiling: Unl
Heat Index: 28°   Visibility: 15mi
Dew Point: 21°   Wind: 6mph
Humidity: 74%   Direction: 330°NNW
Pressure: 29.82"   Gusts: NA
Location:  46.12°N, 70.67°W
Report Text: CYQB 190000Z 33005KT 15SM FEW010 FEW075 SCT120 M02/M06 A2982 RMK SF1AC1AC3 SF TR SLP100
Loading
Personal Weather Stations






























Interactive Weather Map New forecast layout! Learn more

10-Day Weather Forecast

Advertisements
Track Severe Weather on mobile